sensor_id;sensor_type;location;lat;lon;timestamp;P1;durP1;ratioP1;P2;durP2;ratioP2
26375;SDS011;30544;42.196;24.336;2023-02-26T00:00:13;39.60;;;15.00;;
26375;SDS011;30544;42.196;24.336;2023-02-26T00:02:41;31.33;;;15.30;;
26375;SDS011;30544;42.196;24.336;2023-02-26T00:05:10;45.47;;;15.23;;
26375;SDS011;30544;42.196;24.336;2023-02-26T00:07:39;47.30;;;15.05;;
26375;SDS011;30544;42.196;24.336;2023-02-26T00:10:06;48.92;;;17.20;;
26375;SDS011;30544;42.196;24.336;2023-02-26T00:12:35;45.15;;;20.95;;
26375;SDS011;30544;42.196;24.336;2023-02-26T00:15:03;47.88;;;19.35;;
26375;SDS011;30544;42.196;24.336;2023-02-26T00:17:34;42.88;;;17.63;;
26375;SDS011;30544;42.196;24.336;2023-02-26T00:20:07;49.00;;;17.67;;
26375;SDS011;30544;42.196;24.336;2023-02-26T00:22:36;45.47;;;18.35;;
26375;SDS011;30544;42.196;24.336;2023-02-26T00:25:06;49.03;;;16.80;;
26375;SDS011;30544;42.196;24.336;2023-02-26T00:27:34;40.38;;;16.13;;
26375;SDS011;30544;42.196;24.336;2023-02-26T00:30:01;38.50;;;16.23;;
26375;SDS011;30544;42.196;24.336;2023-02-26T00:32:29;40.10;;;17.67;;
26375;SDS011;30544;42.196;24.336;2023-02-26T00:34:57;39.33;;;19.02;;
26375;SDS011;30544;42.196;24.336;2023-02-26T00:37:30;43.75;;;17.33;;
26375;SDS011;30544;42.196;24.336;2023-02-26T00:40:11;41.88;;;18.08;;
26375;SDS011;30544;42.196;24.336;2023-02-26T00:42:42;41.60;;;17.98;;
26375;SDS011;30544;42.196;24.336;2023-02-26T00:45:10;46.85;;;15.57;;
26375;SDS011;30544;42.196;24.336;2023-02-26T00:47:40;43.97;;;13.90;;
26375;SDS011;30544;42.196;24.336;2023-02-26T00:50:15;25.67;;;10.80;;
26375;SDS011;30544;42.196;24.336;2023-02-26T00:52:45;29.65;;;9.38;;
26375;SDS011;30544;42.196;24.336;2023-02-26T00:55:24;23.08;;;8.20;;
26375;SDS011;30544;42.196;24.336;2023-02-26T00:57:50;30.98;;;8.32;;
26375;SDS011;30544;42.196;24.336;2023-02-26T01:00:18;24.13;;;8.10;;
26375;SDS011;30544;42.196;24.336;2023-02-26T01:02:45;22.88;;;7.80;;
26375;SDS011;30544;42.196;24.336;2023-02-26T01:05:13;23.30;;;7.82;;
26375;SDS011;30544;42.196;24.336;2023-02-26T01:07:41;38.70;;;7.95;;
26375;SDS011;30544;42.196;24.336;2023-02-26T01:10:12;24.40;;;7.75;;
26375;SDS011;30544;42.196;24.336;2023-02-26T01:12:41;34.15;;;8.60;;
26375;SDS011;30544;42.196;24.336;2023-02-26T01:15:09;30.45;;;8.35;;
26375;SDS011;30544;42.196;24.336;2023-02-26T01:17:38;25.67;;;8.82;;
26375;SDS011;30544;42.196;24.336;2023-02-26T01:20:13;35.65;;;9.85;;
26375;SDS011;30544;42.196;24.336;2023-02-26T01:22:43;30.98;;;9.50;;
26375;SDS011;30544;42.196;24.336;2023-02-26T01:25:17;38.67;;;11.47;;
26375;SDS011;30544;42.196;24.336;2023-02-26T01:27:48;40.67;;;12.25;;
26375;SDS011;30544;42.196;24.336;2023-02-26T01:30:16;31.05;;;11.45;;
26375;SDS011;30544;42.196;24.336;2023-02-26T01:32:45;34.67;;;12.85;;
26375;SDS011;30544;42.196;24.336;2023-02-26T01:35:19;33.55;;;13.43;;
26375;SDS011;30544;42.196;24.336;2023-02-26T01:37:56;39.05;;;16.10;;
26375;SDS011;30544;42.196;24.336;2023-02-26T01:43:41;35.60;;;15.57;;
26375;SDS011;30544;42.196;24.336;2023-02-26T01:46:15;47.28;;;16.25;;
26375;SDS011;30544;42.196;24.336;2023-02-26T01:48:48;44.72;;;18.70;;
26375;SDS011;30544;42.196;24.336;2023-02-26T01:51:17;40.08;;;15.40;;
26375;SDS011;30544;42.196;24.336;2023-02-26T01:54:03;51.40;;;18.35;;
26375;SDS011;30544;42.196;24.336;2023-02-26T01:56:30;39.67;;;19.05;;
26375;SDS011;30544;42.196;24.336;2023-02-26T01:58:58;43.00;;;17.15;;
26375;SDS011;30544;42.196;24.336;2023-02-26T02:01:29;32.25;;;16.63;;
26375;SDS011;30544;42.196;24.336;2023-02-26T02:03:57;41.67;;;18.52;;
26375;SDS011;30544;42.196;24.336;2023-02-26T02:06:24;47.53;;;17.08;;
26375;SDS011;30544;42.196;24.336;2023-02-26T02:08:54;51.58;;;18.55;;
26375;SDS011;30544;42.196;24.336;2023-02-26T02:11:21;42.78;;;17.52;;
26375;SDS011;30544;42.196;24.336;2023-02-26T02:14:00;61.22;;;18.30;;
26375;SDS011;30544;42.196;24.336;2023-02-26T02:16:36;46.10;;;17.45;;
26375;SDS011;30544;42.196;24.336;2023-02-26T02:19:20;47.42;;;18.70;;
26375;SDS011;30544;42.196;24.336;2023-02-26T02:22:12;41.63;;;17.42;;
26375;SDS011;30544;42.196;24.336;2023-02-26T02:24:51;49.90;;;18.00;;
26375;SDS011;30544;42.196;24.336;2023-02-26T02:27:34;38.33;;;16.95;;
26375;SDS011;30544;42.196;24.336;2023-02-26T02:30:18;43.20;;;16.63;;
26375;SDS011;30544;42.196;24.336;2023-02-26T02:33:00;43.58;;;16.83;;
26375;SDS011;30544;42.196;24.336;2023-02-26T02:35:31;40.78;;;16.00;;
26375;SDS011;30544;42.196;24.336;2023-02-26T02:38:03;37.95;;;14.15;;
26375;SDS011;30544;42.196;24.336;2023-02-26T02:40:33;40.42;;;13.82;;
26375;SDS011;30544;42.196;24.336;2023-02-26T02:43:03;44.70;;;14.77;;
26375;SDS011;30544;42.196;24.336;2023-02-26T02:45:35;41.28;;;15.60;;
26375;SDS011;30544;42.196;24.336;2023-02-26T02:48:09;41.55;;;12.65;;
26375;SDS011;30544;42.196;24.336;2023-02-26T02:50:40;34.13;;;9.40;;
26375;SDS011;30544;42.196;24.336;2023-02-26T02:53:12;22.25;;;7.80;;
26375;SDS011;30544;42.196;24.336;2023-02-26T02:55:45;21.17;;;6.63;;
26375;SDS011;30544;42.196;24.336;2023-02-26T02:58:17;29.73;;;6.60;;
26375;SDS011;30544;42.196;24.336;2023-02-26T03:00:50;24.20;;;5.35;;
26375;SDS011;30544;42.196;24.336;2023-02-26T03:03:23;28.63;;;5.13;;
26375;SDS011;30544;42.196;24.336;2023-02-26T03:05:55;28.10;;;4.63;;
26375;SDS011;30544;42.196;24.336;2023-02-26T03:08:23;22.05;;;4.53;;
26375;SDS011;30544;42.196;24.336;2023-02-26T03:10:53;21.48;;;4.80;;
26375;SDS011;30544;42.196;24.336;2023-02-26T03:13:24;24.88;;;5.10;;
26375;SDS011;30544;42.196;24.336;2023-02-26T03:15:54;28.13;;;4.63;;
26375;SDS011;30544;42.196;24.336;2023-02-26T03:18:30;28.55;;;5.03;;
26375;SDS011;30544;42.196;24.336;2023-02-26T03:21:10;25.73;;;5.90;;
26375;SDS011;30544;42.196;24.336;2023-02-26T03:23:44;22.65;;;5.20;;
26375;SDS011;30544;42.196;24.336;2023-02-26T03:26:18;28.30;;;5.20;;
26375;SDS011;30544;42.196;24.336;2023-02-26T03:28:53;18.48;;;5.43;;
26375;SDS011;30544;42.196;24.336;2023-02-26T03:31:25;20.63;;;4.88;;
26375;SDS011;30544;42.196;24.336;2023-02-26T03:34:02;26.05;;;5.40;;
26375;SDS011;30544;42.196;24.336;2023-02-26T03:36:35;26.67;;;6.00;;
26375;SDS011;30544;42.196;24.336;2023-02-26T03:39:06;30.45;;;5.93;;
26375;SDS011;30544;42.196;24.336;2023-02-26T03:41:38;32.45;;;5.68;;
26375;SDS011;30544;42.196;24.336;2023-02-26T03:44:11;26.38;;;6.05;;
26375;SDS011;30544;42.196;24.336;2023-02-26T03:46:43;25.17;;;5.45;;
26375;SDS011;30544;42.196;24.336;2023-02-26T03:49:15;29.48;;;6.25;;
26375;SDS011;30544;42.196;24.336;2023-02-26T03:51:47;27.75;;;5.90;;
26375;SDS011;30544;42.196;24.336;2023-02-26T03:54:15;32.28;;;6.82;;
26375;SDS011;30544;42.196;24.336;2023-02-26T03:56:46;27.20;;;6.13;;
26375;SDS011;30544;42.196;24.336;2023-02-26T03:59:14;30.90;;;6.70;;
26375;SDS011;30544;42.196;24.336;2023-02-26T04:01:43;30.08;;;5.50;;
26375;SDS011;30544;42.196;24.336;2023-02-26T04:04:16;27.17;;;6.00;;
26375;SDS011;30544;42.196;24.336;2023-02-26T04:06:46;25.75;;;6.10;;
26375;SDS011;30544;42.196;24.336;2023-02-26T04:09:14;23.20;;;5.68;;
26375;SDS011;30544;42.196;24.336;2023-02-26T04:11:41;22.10;;;6.47;;
26375;SDS011;30544;42.196;24.336;2023-02-26T04:14:09;33.10;;;6.15;;
26375;SDS011;30544;42.196;24.336;2023-02-26T04:16:36;22.30;;;5.55;;
26375;SDS011;30544;42.196;24.336;2023-02-26T04:19:03;28.92;;;5.78;;
26375;SDS011;30544;42.196;24.336;2023-02-26T04:21:31;28.10;;;6.30;;
26375;SDS011;30544;42.196;24.336;2023-02-26T04:23:57;30.80;;;6.65;;
26375;SDS011;30544;42.196;24.336;2023-02-26T04:26:24;27.30;;;5.93;;
26375;SDS011;30544;42.196;24.336;2023-02-26T04:28:51;24.30;;;5.93;;
26375;SDS011;30544;42.196;24.336;2023-02-26T04:31:18;39.17;;;6.05;;
26375;SDS011;30544;42.196;24.336;2023-02-26T04:33:44;32.20;;;6.57;;
26375;SDS011;30544;42.196;24.336;2023-02-26T04:36:11;34.63;;;6.40;;
26375;SDS011;30544;42.196;24.336;2023-02-26T04:38:39;28.92;;;5.47;;
26375;SDS011;30544;42.196;24.336;2023-02-26T04:41:10;25.58;;;5.15;;
26375;SDS011;30544;42.196;24.336;2023-02-26T04:43:37;34.92;;;5.30;;
26375;SDS011;30544;42.196;24.336;2023-02-26T04:46:04;41.10;;;6.53;;
26375;SDS011;30544;42.196;24.336;2023-02-26T04:48:31;39.97;;;5.75;;
26375;SDS011;30544;42.196;24.336;2023-02-26T04:50:57;29.15;;;6.22;;
26375;SDS011;30544;42.196;24.336;2023-02-26T04:53:24;35.58;;;6.03;;
26375;SDS011;30544;42.196;24.336;2023-02-26T04:55:52;35.90;;;6.43;;
26375;SDS011;30544;42.196;24.336;2023-02-26T04:58:19;32.95;;;6.82;;
26375;SDS011;30544;42.196;24.336;2023-02-26T05:00:47;35.05;;;6.57;;
26375;SDS011;30544;42.196;24.336;2023-02-26T05:03:14;36.63;;;6.90;;
26375;SDS011;30544;42.196;24.336;2023-02-26T05:05:42;33.55;;;6.13;;
26375;SDS011;30544;42.196;24.336;2023-02-26T05:08:09;36.80;;;6.10;;
26375;SDS011;30544;42.196;24.336;2023-02-26T05:10:36;27.40;;;6.35;;
26375;SDS011;30544;42.196;24.336;2023-02-26T05:13:04;36.15;;;5.80;;
26375;SDS011;30544;42.196;24.336;2023-02-26T05:15:31;33.20;;;5.80;;
26375;SDS011;30544;42.196;24.336;2023-02-26T05:17:58;37.90;;;6.35;;
26375;SDS011;30544;42.196;24.336;2023-02-26T05:20:25;36.90;;;6.38;;
26375;SDS011;30544;42.196;24.336;2023-02-26T05:22:52;37.45;;;6.75;;
26375;SDS011;30544;42.196;24.336;2023-02-26T05:25:19;33.28;;;6.45;;
26375;SDS011;30544;42.196;24.336;2023-02-26T05:27:46;32.05;;;9.38;;
26375;SDS011;30544;42.196;24.336;2023-02-26T05:30:14;34.83;;;6.28;;
26375;SDS011;30544;42.196;24.336;2023-02-26T05:32:41;32.10;;;6.70;;
26375;SDS011;30544;42.196;24.336;2023-02-26T05:35:08;33.63;;;6.97;;
26375;SDS011;30544;42.196;24.336;2023-02-26T05:37:36;26.35;;;9.00;;
26375;SDS011;30544;42.196;24.336;2023-02-26T05:40:03;41.63;;;9.55;;
26375;SDS011;30544;42.196;24.336;2023-02-26T05:42:31;47.85;;;12.63;;
26375;SDS011;30544;42.196;24.336;2023-02-26T05:44:57;33.20;;;8.48;;
26375;SDS011;30544;42.196;24.336;2023-02-26T05:47:26;41.35;;;10.60;;
26375;SDS011;30544;42.196;24.336;2023-02-26T05:49:52;38.13;;;8.40;;
26375;SDS011;30544;42.196;24.336;2023-02-26T05:52:19;36.25;;;9.85;;
26375;SDS011;30544;42.196;24.336;2023-02-26T05:54:46;34.42;;;10.57;;
26375;SDS011;30544;42.196;24.336;2023-02-26T05:57:12;37.00;;;12.07;;
26375;SDS011;30544;42.196;24.336;2023-02-26T05:59:39;31.77;;;12.35;;
26375;SDS011;30544;42.196;24.336;2023-02-26T06:02:06;34.13;;;9.07;;
26375;SDS011;30544;42.196;24.336;2023-02-26T06:04:35;38.53;;;10.30;;
26375;SDS011;30544;42.196;24.336;2023-02-26T06:07:02;41.78;;;8.50;;
26375;SDS011;30544;42.196;24.336;2023-02-26T06:09:29;24.40;;;7.10;;
26375;SDS011;30544;42.196;24.336;2023-02-26T06:11:56;33.55;;;7.93;;
26375;SDS011;30544;42.196;24.336;2023-02-26T06:14:22;32.47;;;6.97;;
26375;SDS011;30544;42.196;24.336;2023-02-26T06:16:49;38.03;;;8.15;;
26375;SDS011;30544;42.196;24.336;2023-02-26T06:19:16;29.48;;;7.00;;
26375;SDS011;30544;42.196;24.336;2023-02-26T06:21:44;31.92;;;7.90;;
26375;SDS011;30544;42.196;24.336;2023-02-26T06:24:11;38.67;;;7.32;;
26375;SDS011;30544;42.196;24.336;2023-02-26T06:26:37;29.75;;;8.15;;
26375;SDS011;30544;42.196;24.336;2023-02-26T06:29:04;32.53;;;8.35;;
26375;SDS011;30544;42.196;24.336;2023-02-26T06:31:32;34.92;;;7.90;;
26375;SDS011;30544;42.196;24.336;2023-02-26T06:33:59;35.53;;;9.00;;
26375;SDS011;30544;42.196;24.336;2023-02-26T06:36:25;30.52;;;7.68;;
26375;SDS011;30544;42.196;24.336;2023-02-26T06:38:54;39.97;;;8.23;;
26375;SDS011;30544;42.196;24.336;2023-02-26T06:41:21;44.97;;;6.95;;
26375;SDS011;30544;42.196;24.336;2023-02-26T06:43:48;43.78;;;7.72;;
26375;SDS011;30544;42.196;24.336;2023-02-26T06:46:14;40.20;;;6.57;;
26375;SDS011;30544;42.196;24.336;2023-02-26T06:48:41;38.75;;;6.68;;
26375;SDS011;30544;42.196;24.336;2023-02-26T06:51:08;32.85;;;6.75;;
26375;SDS011;30544;42.196;24.336;2023-02-26T06:53:35;46.10;;;7.18;;
26375;SDS011;30544;42.196;24.336;2023-02-26T06:56:04;42.72;;;7.13;;
26375;SDS011;30544;42.196;24.336;2023-02-26T06:58:32;35.15;;;6.75;;
26375;SDS011;30544;42.196;24.336;2023-02-26T07:00:58;44.83;;;7.78;;
26375;SDS011;30544;42.196;24.336;2023-02-26T07:03:25;51.47;;;8.23;;
26375;SDS011;30544;42.196;24.336;2023-02-26T07:05:52;29.17;;;6.30;;
26375;SDS011;30544;42.196;24.336;2023-02-26T07:08:19;32.45;;;6.65;;
26375;SDS011;30544;42.196;24.336;2023-02-26T07:10:45;32.53;;;7.10;;
26375;SDS011;30544;42.196;24.336;2023-02-26T07:13:15;33.58;;;6.90;;
26375;SDS011;30544;42.196;24.336;2023-02-26T07:15:42;69.68;;;7.93;;
26375;SDS011;30544;42.196;24.336;2023-02-26T07:18:09;40.28;;;7.85;;
26375;SDS011;30544;42.196;24.336;2023-02-26T07:20:36;37.28;;;7.18;;
26375;SDS011;30544;42.196;24.336;2023-02-26T07:23:02;40.97;;;7.60;;
26375;SDS011;30544;42.196;24.336;2023-02-26T07:25:29;42.50;;;7.72;;
26375;SDS011;30544;42.196;24.336;2023-02-26T07:27:56;29.95;;;6.55;;
26375;SDS011;30544;42.196;24.336;2023-02-26T07:30:25;40.53;;;7.25;;
26375;SDS011;30544;42.196;24.336;2023-02-26T07:32:52;62.97;;;9.13;;
26375;SDS011;30544;42.196;24.336;2023-02-26T07:35:19;29.48;;;6.20;;
26375;SDS011;30544;42.196;24.336;2023-02-26T07:37:45;36.53;;;7.95;;
26375;SDS011;30544;42.196;24.336;2023-02-26T07:40:12;46.33;;;7.35;;
26375;SDS011;30544;42.196;24.336;2023-02-26T07:42:39;34.35;;;7.00;;
26375;SDS011;30544;42.196;24.336;2023-02-26T07:45:06;52.22;;;7.40;;
26375;SDS011;30544;42.196;24.336;2023-02-26T07:47:35;78.68;;;9.60;;
26375;SDS011;30544;42.196;24.336;2023-02-26T07:50:03;63.33;;;8.20;;
26375;SDS011;30544;42.196;24.336;2023-02-26T07:52:30;34.28;;;6.63;;
26375;SDS011;30544;42.196;24.336;2023-02-26T07:54:57;36.65;;;7.88;;
26375;SDS011;30544;42.196;24.336;2023-02-26T07:57:24;50.00;;;8.18;;
26375;SDS011;30544;42.196;24.336;2023-02-26T07:59:51;43.22;;;8.02;;
26375;SDS011;30544;42.196;24.336;2023-02-26T08:02:17;45.83;;;7.50;;
26375;SDS011;30544;42.196;24.336;2023-02-26T08:04:46;27.15;;;7.28;;
26375;SDS011;30544;42.196;24.336;2023-02-26T08:07:12;53.90;;;8.05;;
26375;SDS011;30544;42.196;24.336;2023-02-26T08:09:39;42.92;;;7.78;;
26375;SDS011;30544;42.196;24.336;2023-02-26T08:12:06;37.58;;;7.13;;
26375;SDS011;30544;42.196;24.336;2023-02-26T08:14:33;45.45;;;7.63;;
26375;SDS011;30544;42.196;24.336;2023-02-26T08:17:00;28.25;;;7.13;;
26375;SDS011;30544;42.196;24.336;2023-02-26T08:19:26;33.70;;;7.00;;
26375;SDS011;30544;42.196;24.336;2023-02-26T08:21:54;35.58;;;6.97;;
26375;SDS011;30544;42.196;24.336;2023-02-26T08:24:21;31.58;;;7.05;;
26375;SDS011;30544;42.196;24.336;2023-02-26T08:26:48;26.98;;;7.35;;
26375;SDS011;30544;42.196;24.336;2023-02-26T08:29:15;37.58;;;7.40;;
26375;SDS011;30544;42.196;24.336;2023-02-26T08:31:43;34.25;;;8.15;;
26375;SDS011;30544;42.196;24.336;2023-02-26T08:34:09;72.07;;;8.60;;
26375;SDS011;30544;42.196;24.336;2023-02-26T08:36:36;75.07;;;9.75;;
26375;SDS011;30544;42.196;24.336;2023-02-26T08:39:04;69.95;;;9.55;;
26375;SDS011;30544;42.196;24.336;2023-02-26T08:41:32;109.10;;;10.00;;
26375;SDS011;30544;42.196;24.336;2023-02-26T08:44:00;61.83;;;8.85;;
26375;SDS011;30544;42.196;24.336;2023-02-26T08:46:27;77.53;;;8.75;;
26375;SDS011;30544;42.196;24.336;2023-02-26T08:48:54;73.82;;;9.07;;
26375;SDS011;30544;42.196;24.336;2023-02-26T08:51:21;60.97;;;8.82;;
26375;SDS011;30544;42.196;24.336;2023-02-26T08:53:48;46.33;;;7.05;;
26375;SDS011;30544;42.196;24.336;2023-02-26T08:56:16;54.42;;;7.28;;
26375;SDS011;30544;42.196;24.336;2023-02-26T08:58:43;50.67;;;8.68;;
26375;SDS011;30544;42.196;24.336;2023-02-26T09:01:10;77.47;;;9.80;;
26375;SDS011;30544;42.196;24.336;2023-02-26T09:03:37;53.25;;;8.73;;
26375;SDS011;30544;42.196;24.336;2023-02-26T09:06:04;55.30;;;9.00;;
26375;SDS011;30544;42.196;24.336;2023-02-26T09:08:31;58.95;;;8.48;;
26375;SDS011;30544;42.196;24.336;2023-02-26T09:10:59;67.07;;;9.43;;
26375;SDS011;30544;42.196;24.336;2023-02-26T09:13:28;69.07;;;8.23;;
26375;SDS011;30544;42.196;24.336;2023-02-26T09:15:55;38.97;;;7.53;;
26375;SDS011;30544;42.196;24.336;2023-02-26T09:18:22;35.90;;;8.00;;
26375;SDS011;30544;42.196;24.336;2023-02-26T09:20:49;38.00;;;7.20;;
26375;SDS011;30544;42.196;24.336;2023-02-26T09:23:16;39.42;;;7.22;;
26375;SDS011;30544;42.196;24.336;2023-02-26T09:25:43;30.92;;;6.32;;
26375;SDS011;30544;42.196;24.336;2023-02-26T09:28:09;42.33;;;7.80;;
26375;SDS011;30544;42.196;24.336;2023-02-26T09:30:37;62.65;;;9.73;;
26375;SDS011;30544;42.196;24.336;2023-02-26T09:33:04;36.38;;;7.63;;
26375;SDS011;30544;42.196;24.336;2023-02-26T09:35:31;39.53;;;7.85;;
26375;SDS011;30544;42.196;24.336;2023-02-26T09:37:58;47.60;;;8.05;;
26375;SDS011;30544;42.196;24.336;2023-02-26T09:40:27;46.63;;;9.07;;
26375;SDS011;30544;42.196;24.336;2023-02-26T09:43:15;34.38;;;7.57;;
26375;SDS011;30544;42.196;24.336;2023-02-26T09:45:56;33.88;;;8.10;;
26375;SDS011;30544;42.196;24.336;2023-02-26T09:48:30;41.15;;;8.43;;
26375;SDS011;30544;42.196;24.336;2023-02-26T09:50:59;36.58;;;7.53;;
26375;SDS011;30544;42.196;24.336;2023-02-26T09:53:27;44.33;;;7.18;;
26375;SDS011;30544;42.196;24.336;2023-02-26T09:55:58;31.13;;;7.65;;
26375;SDS011;30544;42.196;24.336;2023-02-26T09:58:29;49.72;;;8.25;;
26375;SDS011;30544;42.196;24.336;2023-02-26T10:00:59;35.25;;;7.78;;
26375;SDS011;30544;42.196;24.336;2023-02-26T10:03:33;37.40;;;7.82;;
26375;SDS011;30544;42.196;24.336;2023-02-26T10:06:15;37.88;;;6.53;;
26375;SDS011;30544;42.196;24.336;2023-02-26T10:08:52;45.20;;;9.00;;
26375;SDS011;30544;42.196;24.336;2023-02-26T10:11:30;40.30;;;8.75;;
26375;SDS011;30544;42.196;24.336;2023-02-26T10:14:09;33.45;;;6.93;;
26375;SDS011;30544;42.196;24.336;2023-02-26T10:16:45;36.92;;;7.10;;
26375;SDS011;30544;42.196;24.336;2023-02-26T10:19:18;45.40;;;6.80;;
26375;SDS011;30544;42.196;24.336;2023-02-26T10:21:49;32.20;;;7.22;;
26375;SDS011;30544;42.196;24.336;2023-02-26T10:24:19;33.42;;;6.85;;
26375;SDS011;30544;42.196;24.336;2023-02-26T10:26:50;38.28;;;7.47;;
26375;SDS011;30544;42.196;24.336;2023-02-26T10:29:23;35.88;;;7.28;;
26375;SDS011;30544;42.196;24.336;2023-02-26T10:32:01;33.80;;;6.65;;
26375;SDS011;30544;42.196;24.336;2023-02-26T10:34:38;72.22;;;8.82;;
26375;SDS011;30544;42.196;24.336;2023-02-26T10:37:11;39.28;;;7.05;;
26375;SDS011;30544;42.196;24.336;2023-02-26T10:39:46;45.60;;;6.88;;
26375;SDS011;30544;42.196;24.336;2023-02-26T10:42:17;35.50;;;7.18;;
26375;SDS011;30544;42.196;24.336;2023-02-26T10:44:50;27.25;;;6.05;;
26375;SDS011;30544;42.196;24.336;2023-02-26T10:47:39;25.88;;;6.90;;
26375;SDS011;30544;42.196;24.336;2023-02-26T10:50:12;33.00;;;7.07;;
26375;SDS011;30544;42.196;24.336;2023-02-26T10:52:42;40.78;;;6.78;;
26375;SDS011;30544;42.196;24.336;2023-02-26T10:55:24;34.30;;;6.53;;
26375;SDS011;30544;42.196;24.336;2023-02-26T10:57:59;42.08;;;7.75;;
26375;SDS011;30544;42.196;24.336;2023-02-26T11:00:30;26.85;;;6.93;;
26375;SDS011;30544;42.196;24.336;2023-02-26T11:03:00;36.60;;;6.45;;
26375;SDS011;30544;42.196;24.336;2023-02-26T11:05:29;32.35;;;6.57;;
26375;SDS011;30544;42.196;24.336;2023-02-26T11:07:58;33.53;;;7.47;;
26375;SDS011;30544;42.196;24.336;2023-02-26T11:10:30;34.20;;;6.60;;
26375;SDS011;30544;42.196;24.336;2023-02-26T11:13:06;43.55;;;6.47;;
26375;SDS011;30544;42.196;24.336;2023-02-26T11:15:33;29.42;;;6.70;;
26375;SDS011;30544;42.196;24.336;2023-02-26T11:18:02;41.53;;;6.75;;
26375;SDS011;30544;42.196;24.336;2023-02-26T11:20:30;34.80;;;6.97;;
26375;SDS011;30544;42.196;24.336;2023-02-26T11:23:01;27.35;;;5.88;;
26375;SDS011;30544;42.196;24.336;2023-02-26T11:25:32;29.38;;;6.20;;
26375;SDS011;30544;42.196;24.336;2023-02-26T11:28:01;32.92;;;6.28;;
26375;SDS011;30544;42.196;24.336;2023-02-26T11:30:31;32.22;;;5.80;;
26375;SDS011;30544;42.196;24.336;2023-02-26T11:33:05;30.55;;;6.68;;
26375;SDS011;30544;42.196;24.336;2023-02-26T11:35:41;33.53;;;5.95;;
26375;SDS011;30544;42.196;24.336;2023-02-26T11:38:11;31.70;;;6.30;;
26375;SDS011;30544;42.196;24.336;2023-02-26T11:40:45;30.42;;;5.85;;
26375;SDS011;30544;42.196;24.336;2023-02-26T11:43:13;34.65;;;6.10;;
26375;SDS011;30544;42.196;24.336;2023-02-26T11:45:44;28.38;;;5.70;;
26375;SDS011;30544;42.196;24.336;2023-02-26T11:48:15;28.08;;;5.90;;
26375;SDS011;30544;42.196;24.336;2023-02-26T11:50:48;22.20;;;6.45;;
26375;SDS011;30544;42.196;24.336;2023-02-26T11:53:23;30.50;;;6.55;;
26375;SDS011;30544;42.196;24.336;2023-02-26T11:55:52;30.98;;;6.57;;
26375;SDS011;30544;42.196;24.336;2023-02-26T11:58:25;29.65;;;6.20;;
26375;SDS011;30544;42.196;24.336;2023-02-26T12:00:56;32.80;;;6.15;;
26375;SDS011;30544;42.196;24.336;2023-02-26T12:03:27;32.17;;;5.28;;
26375;SDS011;30544;42.196;24.336;2023-02-26T12:05:57;23.30;;;5.60;;
26375;SDS011;30544;42.196;24.336;2023-02-26T12:08:30;29.13;;;5.50;;
26375;SDS011;30544;42.196;24.336;2023-02-26T12:11:16;37.55;;;6.32;;
26375;SDS011;30544;42.196;24.336;2023-02-26T12:14:05;26.85;;;5.72;;
26375;SDS011;30544;42.196;24.336;2023-02-26T12:16:41;19.92;;;4.97;;
26375;SDS011;30544;42.196;24.336;2023-02-26T12:19:23;27.40;;;5.05;;
26375;SDS011;30544;42.196;24.336;2023-02-26T12:22:20;30.83;;;6.25;;
26375;SDS011;30544;42.196;24.336;2023-02-26T12:25:10;31.95;;;5.80;;
26375;SDS011;30544;42.196;24.336;2023-02-26T12:33:46;27.90;;;5.72;;
26375;SDS011;30544;42.196;24.336;2023-02-26T12:36:31;27.60;;;5.57;;
26375;SDS011;30544;42.196;24.336;2023-02-26T12:39:09;25.80;;;5.38;;
26375;SDS011;30544;42.196;24.336;2023-02-26T12:41:50;20.80;;;4.85;;
26375;SDS011;30544;42.196;24.336;2023-02-26T12:44:49;27.25;;;6.22;;
26375;SDS011;30544;42.196;24.336;2023-02-26T12:47:40;28.55;;;4.50;;
26375;SDS011;30544;42.196;24.336;2023-02-26T12:50:38;24.10;;;4.88;;
26375;SDS011;30544;42.196;24.336;2023-02-26T12:53:24;30.27;;;5.15;;
26375;SDS011;30544;42.196;24.336;2023-02-26T12:56:18;28.98;;;4.90;;
26375;SDS011;30544;42.196;24.336;2023-02-26T12:59:01;23.23;;;5.22;;
26375;SDS011;30544;42.196;24.336;2023-02-26T13:01:43;23.88;;;4.90;;
26375;SDS011;30544;42.196;24.336;2023-02-26T13:04:30;26.30;;;5.45;;
26375;SDS011;30544;42.196;24.336;2023-02-26T13:07:34;30.42;;;4.57;;
26375;SDS011;30544;42.196;24.336;2023-02-26T13:10:16;22.80;;;4.68;;
26375;SDS011;30544;42.196;24.336;2023-02-26T13:12:54;24.92;;;5.10;;
26375;SDS011;30544;42.196;24.336;2023-02-26T13:15:44;29.30;;;7.18;;
26375;SDS011;30544;42.196;24.336;2023-02-26T13:18:23;27.75;;;6.60;;
26375;SDS011;30544;42.196;24.336;2023-02-26T13:20:56;24.27;;;5.50;;
26375;SDS011;30544;42.196;24.336;2023-02-26T13:23:27;24.52;;;4.45;;
26375;SDS011;30544;42.196;24.336;2023-02-26T13:26:00;36.83;;;5.75;;
26375;SDS011;30544;42.196;24.336;2023-02-26T13:28:34;29.10;;;5.88;;
26375;SDS011;30544;42.196;24.336;2023-02-26T13:31:06;35.55;;;5.53;;
26375;SDS011;30544;42.196;24.336;2023-02-26T13:33:36;82.18;;;8.38;;
26375;SDS011;30544;42.196;24.336;2023-02-26T13:36:05;35.50;;;5.72;;
26375;SDS011;30544;42.196;24.336;2023-02-26T13:38:35;31.58;;;6.28;;
26375;SDS011;30544;42.196;24.336;2023-02-26T13:41:13;28.58;;;5.60;;
26375;SDS011;30544;42.196;24.336;2023-02-26T13:44:03;25.58;;;5.13;;
26375;SDS011;30544;42.196;24.336;2023-02-26T13:46:45;31.00;;;5.97;;
26375;SDS011;30544;42.196;24.336;2023-02-26T13:49:24;26.77;;;5.43;;
26375;SDS011;30544;42.196;24.336;2023-02-26T13:51:56;27.73;;;5.63;;
26375;SDS011;30544;42.196;24.336;2023-02-26T13:54:28;25.02;;;4.57;;
26375;SDS011;30544;42.196;24.336;2023-02-26T13:57:07;30.45;;;5.50;;
26375;SDS011;30544;42.196;24.336;2023-02-26T13:59:49;25.25;;;5.07;;
26375;SDS011;30544;42.196;24.336;2023-02-26T14:05:34;23.67;;;5.85;;
26375;SDS011;30544;42.196;24.336;2023-02-26T14:08:25;26.92;;;5.20;;
26375;SDS011;30544;42.196;24.336;2023-02-26T14:11:04;29.33;;;5.50;;
26375;SDS011;30544;42.196;24.336;2023-02-26T14:14:11;25.35;;;5.82;;
26375;SDS011;30544;42.196;24.336;2023-02-26T14:16:41;27.00;;;5.43;;
26375;SDS011;30544;42.196;24.336;2023-02-26T14:19:18;47.45;;;6.60;;
26375;SDS011;30544;42.196;24.336;2023-02-26T14:21:52;25.58;;;5.85;;
26375;SDS011;30544;42.196;24.336;2023-02-26T14:24:22;27.23;;;5.47;;
26375;SDS011;30544;42.196;24.336;2023-02-26T14:27:08;24.27;;;5.20;;
26375;SDS011;30544;42.196;24.336;2023-02-26T14:30:00;18.05;;;5.40;;
26375;SDS011;30544;42.196;24.336;2023-02-26T14:32:55;26.67;;;5.82;;
26375;SDS011;30544;42.196;24.336;2023-02-26T14:35:34;35.47;;;6.07;;
26375;SDS011;30544;42.196;24.336;2023-02-26T14:38:05;28.45;;;5.70;;
26375;SDS011;30544;42.196;24.336;2023-02-26T14:40:38;30.38;;;5.50;;
26375;SDS011;30544;42.196;24.336;2023-02-26T14:43:13;29.17;;;5.63;;
26375;SDS011;30544;42.196;24.336;2023-02-26T14:45:45;24.05;;;5.07;;
26375;SDS011;30544;42.196;24.336;2023-02-26T14:48:13;29.33;;;6.32;;
26375;SDS011;30544;42.196;24.336;2023-02-26T14:50:44;25.02;;;5.50;;
26375;SDS011;30544;42.196;24.336;2023-02-26T14:53:38;23.30;;;5.82;;
26375;SDS011;30544;42.196;24.336;2023-02-26T14:56:21;26.88;;;7.05;;